sensor_id;sensor_type;location;lat;lon;timestamp;P1;durP1;ratioP1;P2;durP2;ratioP2
3601;SDS011;1815;50.950;6.920;2023-04-03T00:00:41;1.87;;;1.33;;
3601;SDS011;1815;50.950;6.920;2023-04-03T00:03:07;2.90;;;1.57;;
3601;SDS011;1815;50.950;6.920;2023-04-03T00:05:33;2.17;;;1.50;;
3601;SDS011;1815;50.950;6.920;2023-04-03T00:07:58;2.00;;;1.27;;
3601;SDS011;1815;50.950;6.920;2023-04-03T00:10:26;2.65;;;1.95;;
3601;SDS011;1815;50.950;6.920;2023-04-03T00:12:51;3.03;;;1.60;;
3601;SDS011;1815;50.950;6.920;2023-04-03T00:15:17;3.87;;;2.13;;
3601;SDS011;1815;50.950;6.920;2023-04-03T00:17:43;3.93;;;1.97;;
3601;SDS011;1815;50.950;6.920;2023-04-03T00:20:09;3.00;;;1.67;;
3601;SDS011;1815;50.950;6.920;2023-04-03T00:22:35;4.53;;;1.42;;
3601;SDS011;1815;50.950;6.920;2023-04-03T00:25:01;4.37;;;2.13;;
3601;SDS011;1815;50.950;6.920;2023-04-03T00:27:26;2.50;;;1.60;;
3601;SDS011;1815;50.950;6.920;2023-04-03T00:29:52;2.30;;;2.03;;
3601;SDS011;1815;50.950;6.920;2023-04-03T00:32:18;3.13;;;2.10;;
3601;SDS011;1815;50.950;6.920;2023-04-03T00:34:43;2.90;;;2.47;;
3601;SDS011;1815;50.950;6.920;2023-04-03T00:37:09;2.67;;;2.30;;
3601;SDS011;1815;50.950;6.920;2023-04-03T00:39:36;3.95;;;2.70;;
3601;SDS011;1815;50.950;6.920;2023-04-03T00:42:01;4.47;;;1.97;;
3601;SDS011;1815;50.950;6.920;2023-04-03T00:46:53;2.10;;;1.90;;
3601;SDS011;1815;50.950;6.920;2023-04-03T00:49:19;2.70;;;2.27;;
3601;SDS011;1815;50.950;6.920;2023-04-03T00:51:45;2.78;;;2.13;;
3601;SDS011;1815;50.950;6.920;2023-04-03T00:54:11;3.78;;;2.30;;
3601;SDS011;1815;50.950;6.920;2023-04-03T00:56:38;3.60;;;2.30;;
3601;SDS011;1815;50.950;6.920;2023-04-03T00:59:14;3.17;;;2.65;;
3601;SDS011;1815;50.950;6.920;2023-04-03T01:01:48;2.28;;;1.85;;
3601;SDS011;1815;50.950;6.920;2023-04-03T01:04:29;2.30;;;2.10;;
3601;SDS011;1815;50.950;6.920;2023-04-03T01:07:08;4.20;;;1.95;;
3601;SDS011;1815;50.950;6.920;2023-04-03T01:09:34;2.90;;;1.73;;
3601;SDS011;1815;50.950;6.920;2023-04-03T01:12:17;2.25;;;1.95;;
3601;SDS011;1815;50.950;6.920;2023-04-03T01:14:59;2.72;;;1.65;;
3601;SDS011;1815;50.950;6.920;2023-04-03T01:19:57;2.13;;;1.50;;
3601;SDS011;1815;50.950;6.920;2023-04-03T01:22:59;2.10;;;1.58;;
3601;SDS011;1815;50.950;6.920;2023-04-03T01:25:33;2.83;;;1.33;;
3601;SDS011;1815;50.950;6.920;2023-04-03T01:28:00;3.67;;;1.80;;
3601;SDS011;1815;50.950;6.920;2023-04-03T01:30:34;2.20;;;1.50;;
3601;SDS011;1815;50.950;6.920;2023-04-03T01:33:05;2.58;;;1.40;;
3601;SDS011;1815;50.950;6.920;2023-04-03T01:35:32;3.38;;;1.50;;
3601;SDS011;1815;50.950;6.920;2023-04-03T01:37:58;2.30;;;1.50;;
3601;SDS011;1815;50.950;6.920;2023-04-03T01:40:24;1.70;;;1.30;;
3601;SDS011;1815;50.950;6.920;2023-04-03T01:42:50;5.72;;;1.30;;
3601;SDS011;1815;50.950;6.920;2023-04-03T01:45:16;2.13;;;1.38;;
3601;SDS011;1815;50.950;6.920;2023-04-03T01:47:42;3.07;;;1.60;;
3601;SDS011;1815;50.950;6.920;2023-04-03T01:50:08;2.40;;;1.33;;
3601;SDS011;1815;50.950;6.920;2023-04-03T01:52:34;2.75;;;1.52;;
3601;SDS011;1815;50.950;6.920;2023-04-03T01:55:00;2.40;;;1.50;;
3601;SDS011;1815;50.950;6.920;2023-04-03T01:57:26;1.80;;;1.40;;
3601;SDS011;1815;50.950;6.920;2023-04-03T01:59:52;2.50;;;1.30;;
3601;SDS011;1815;50.950;6.920;2023-04-03T02:02:18;2.10;;;1.67;;
3601;SDS011;1815;50.950;6.920;2023-04-03T02:04:45;3.75;;;1.55;;
3601;SDS011;1815;50.950;6.920;2023-04-03T02:07:11;3.10;;;1.60;;
3601;SDS011;1815;50.950;6.920;2023-04-03T02:09:37;3.43;;;1.87;;
3601;SDS011;1815;50.950;6.920;2023-04-03T02:12:03;3.35;;;1.63;;
3601;SDS011;1815;50.950;6.920;2023-04-03T02:14:29;3.90;;;2.00;;
3601;SDS011;1815;50.950;6.920;2023-04-03T02:16:55;3.40;;;1.73;;
3601;SDS011;1815;50.950;6.920;2023-04-03T02:19:21;2.17;;;1.60;;
3601;SDS011;1815;50.950;6.920;2023-04-03T02:21:48;3.38;;;2.25;;
3601;SDS011;1815;50.950;6.920;2023-04-03T02:24:14;2.38;;;1.60;;
3601;SDS011;1815;50.950;6.920;2023-04-03T02:26:40;3.00;;;1.90;;
3601;SDS011;1815;50.950;6.920;2023-04-03T02:29:05;2.33;;;1.50;;
3601;SDS011;1815;50.950;6.920;2023-04-03T02:31:31;2.10;;;1.77;;
3601;SDS011;1815;50.950;6.920;2023-04-03T02:33:59;2.63;;;1.65;;
3601;SDS011;1815;50.950;6.920;2023-04-03T02:36:25;2.73;;;2.07;;
3601;SDS011;1815;50.950;6.920;2023-04-03T02:38:55;2.78;;;1.50;;
3601;SDS011;1815;50.950;6.920;2023-04-03T02:41:21;2.37;;;1.67;;
3601;SDS011;1815;50.950;6.920;2023-04-03T02:43:47;2.60;;;1.60;;
3601;SDS011;1815;50.950;6.920;2023-04-03T02:46:14;2.03;;;1.50;;
3601;SDS011;1815;50.950;6.920;2023-04-03T02:48:40;3.63;;;1.58;;
3601;SDS011;1815;50.950;6.920;2023-04-03T02:51:06;4.00;;;2.07;;
3601;SDS011;1815;50.950;6.920;2023-04-03T02:53:32;4.03;;;2.17;;
3601;SDS011;1815;50.950;6.920;2023-04-03T02:56:05;3.45;;;2.03;;
3601;SDS011;1815;50.950;6.920;2023-04-03T02:58:31;1.90;;;1.43;;
3601;SDS011;1815;50.950;6.920;2023-04-03T03:00:58;3.47;;;1.70;;
3601;SDS011;1815;50.950;6.920;2023-04-03T03:03:24;3.07;;;1.97;;
3601;SDS011;1815;50.950;6.920;2023-04-03T03:05:50;4.33;;;1.80;;
3601;SDS011;1815;50.950;6.920;2023-04-03T03:08:26;1.90;;;1.70;;
3601;SDS011;1815;50.950;6.920;2023-04-03T03:10:51;2.60;;;1.80;;
3601;SDS011;1815;50.950;6.920;2023-04-03T03:13:17;4.90;;;2.13;;
3601;SDS011;1815;50.950;6.920;2023-04-03T03:15:43;2.70;;;1.93;;
3601;SDS011;1815;50.950;6.920;2023-04-03T03:18:08;3.30;;;2.10;;
3601;SDS011;1815;50.950;6.920;2023-04-03T03:20:34;3.33;;;2.00;;
3601;SDS011;1815;50.950;6.920;2023-04-03T03:23:00;2.53;;;1.83;;
3601;SDS011;1815;50.950;6.920;2023-04-03T03:25:26;4.95;;;2.20;;
3601;SDS011;1815;50.950;6.920;2023-04-03T03:27:52;2.00;;;1.60;;
3601;SDS011;1815;50.950;6.920;2023-04-03T03:30:17;4.50;;;2.27;;
3601;SDS011;1815;50.950;6.920;2023-04-03T03:32:45;2.60;;;2.03;;
3601;SDS011;1815;50.950;6.920;2023-04-03T03:35:10;3.67;;;1.93;;
3601;SDS011;1815;50.950;6.920;2023-04-03T03:37:37;3.63;;;1.50;;
3601;SDS011;1815;50.950;6.920;2023-04-03T03:40:03;1.97;;;1.43;;
3601;SDS011;1815;50.950;6.920;2023-04-03T03:42:30;2.72;;;1.65;;
3601;SDS011;1815;50.950;6.920;2023-04-03T03:44:56;2.53;;;1.70;;
3601;SDS011;1815;50.950;6.920;2023-04-03T03:47:22;2.70;;;1.80;;
3601;SDS011;1815;50.950;6.920;2023-04-03T03:49:47;2.73;;;1.97;;
3601;SDS011;1815;50.950;6.920;2023-04-03T03:52:14;3.78;;;1.88;;
3601;SDS011;1815;50.950;6.920;2023-04-03T03:54:40;2.17;;;1.60;;
3601;SDS011;1815;50.950;6.920;2023-04-03T03:57:07;3.20;;;1.65;;
3601;SDS011;1815;50.950;6.920;2023-04-03T03:59:33;4.50;;;1.33;;
3601;SDS011;1815;50.950;6.920;2023-04-03T04:01:59;4.50;;;1.40;;
3601;SDS011;1815;50.950;6.920;2023-04-03T04:04:24;1.90;;;1.07;;
3601;SDS011;1815;50.950;6.920;2023-04-03T04:06:50;3.63;;;1.77;;
3601;SDS011;1815;50.950;6.920;2023-04-03T04:09:16;2.10;;;1.30;;
3601;SDS011;1815;50.950;6.920;2023-04-03T04:11:43;2.65;;;1.77;;
3601;SDS011;1815;50.950;6.920;2023-04-03T04:14:11;3.38;;;1.00;;
3601;SDS011;1815;50.950;6.920;2023-04-03T04:16:39;3.30;;;1.65;;
3601;SDS011;1815;50.950;6.920;2023-04-03T04:19:10;1.70;;;1.10;;
3601;SDS011;1815;50.950;6.920;2023-04-03T04:21:37;4.93;;;1.40;;
3601;SDS011;1815;50.950;6.920;2023-04-03T04:24:03;2.90;;;1.77;;
3601;SDS011;1815;50.950;6.920;2023-04-03T04:26:29;2.28;;;1.60;;
3601;SDS011;1815;50.950;6.920;2023-04-03T04:28:55;2.90;;;1.47;;
3601;SDS011;1815;50.950;6.920;2023-04-03T04:31:20;4.27;;;1.87;;
3601;SDS011;1815;50.950;6.920;2023-04-03T04:33:47;4.00;;;1.40;;
3601;SDS011;1815;50.950;6.920;2023-04-03T04:36:14;3.17;;;1.70;;
3601;SDS011;1815;50.950;6.920;2023-04-03T04:38:41;2.78;;;1.20;;
3601;SDS011;1815;50.950;6.920;2023-04-03T04:41:07;1.83;;;1.10;;
3601;SDS011;1815;50.950;6.920;2023-04-03T04:43:34;2.72;;;1.17;;
3601;SDS011;1815;50.950;6.920;2023-04-03T04:46:07;2.58;;;1.00;;
3601;SDS011;1815;50.950;6.920;2023-04-03T04:48:42;2.00;;;1.00;;
3601;SDS011;1815;50.950;6.920;2023-04-03T04:51:09;1.70;;;1.10;;
3601;SDS011;1815;50.950;6.920;2023-04-03T04:53:37;2.35;;;1.23;;
3601;SDS011;1815;50.950;6.920;2023-04-03T04:56:03;2.78;;;1.40;;
3601;SDS011;1815;50.950;6.920;2023-04-03T04:58:32;3.72;;;1.50;;
3601;SDS011;1815;50.950;6.920;2023-04-03T05:01:07;2.58;;;1.25;;
3601;SDS011;1815;50.950;6.920;2023-04-03T05:03:39;1.60;;;1.00;;
3601;SDS011;1815;50.950;6.920;2023-04-03T05:06:05;3.30;;;1.50;;
3601;SDS011;1815;50.950;6.920;2023-04-03T05:08:33;2.15;;;1.27;;
3601;SDS011;1815;50.950;6.920;2023-04-03T05:11:00;2.42;;;1.23;;
3601;SDS011;1815;50.950;6.920;2023-04-03T05:13:27;1.70;;;0.95;;
3601;SDS011;1815;50.950;6.920;2023-04-03T05:15:54;2.92;;;0.90;;
3601;SDS011;1815;50.950;6.920;2023-04-03T05:18:20;2.03;;;1.20;;
3601;SDS011;1815;50.950;6.920;2023-04-03T05:20:50;1.98;;;1.10;;
3601;SDS011;1815;50.950;6.920;2023-04-03T05:23:17;2.47;;;1.63;;
3601;SDS011;1815;50.950;6.920;2023-04-03T05:25:44;3.17;;;1.50;;
3601;SDS011;1815;50.950;6.920;2023-04-03T05:28:12;1.80;;;1.20;;
3601;SDS011;1815;50.950;6.920;2023-04-03T05:30:38;1.60;;;1.03;;
3601;SDS011;1815;50.950;6.920;2023-04-03T05:33:04;2.53;;;1.57;;
3601;SDS011;1815;50.950;6.920;2023-04-03T05:35:40;3.35;;;1.00;;
3601;SDS011;1815;50.950;6.920;2023-04-03T05:38:09;2.30;;;1.10;;
3601;SDS011;1815;50.950;6.920;2023-04-03T05:40:36;2.13;;;1.20;;
3601;SDS011;1815;50.950;6.920;2023-04-03T05:43:02;2.17;;;1.33;;
3601;SDS011;1815;50.950;6.920;2023-04-03T05:45:31;2.38;;;1.08;;
3601;SDS011;1815;50.950;6.920;2023-04-03T05:47:57;3.03;;;1.10;;
3601;SDS011;1815;50.950;6.920;2023-04-03T05:50:23;2.85;;;1.15;;
3601;SDS011;1815;50.950;6.920;2023-04-03T05:52:52;2.00;;;1.10;;
3601;SDS011;1815;50.950;6.920;2023-04-03T05:55:21;1.80;;;1.13;;
3601;SDS011;1815;50.950;6.920;2023-04-03T05:57:48;2.10;;;1.10;;
3601;SDS011;1815;50.950;6.920;2023-04-03T06:00:14;3.43;;;1.07;;
3601;SDS011;1815;50.950;6.920;2023-04-03T06:02:52;2.25;;;1.00;;
3601;SDS011;1815;50.950;6.920;2023-04-03T06:05:22;2.45;;;1.15;;
3601;SDS011;1815;50.950;6.920;2023-04-03T06:07:49;1.90;;;1.00;;
3601;SDS011;1815;50.950;6.920;2023-04-03T06:10:15;2.67;;;0.95;;
3601;SDS011;1815;50.950;6.920;2023-04-03T06:12:42;3.08;;;1.65;;
3601;SDS011;1815;50.950;6.920;2023-04-03T06:15:08;3.27;;;1.10;;
3601;SDS011;1815;50.950;6.920;2023-04-03T06:17:35;1.95;;;1.30;;
3601;SDS011;1815;50.950;6.920;2023-04-03T06:20:02;2.55;;;1.30;;
3601;SDS011;1815;50.950;6.920;2023-04-03T06:22:29;4.00;;;2.10;;
3601;SDS011;1815;50.950;6.920;2023-04-03T06:24:56;3.58;;;1.02;;
3601;SDS011;1815;50.950;6.920;2023-04-03T06:27:22;5.50;;;1.10;;
3601;SDS011;1815;50.950;6.920;2023-04-03T06:29:48;3.20;;;1.23;;
3601;SDS011;1815;50.950;6.920;2023-04-03T06:32:15;2.05;;;1.20;;
3601;SDS011;1815;50.950;6.920;2023-04-03T06:34:41;2.90;;;1.20;;
3601;SDS011;1815;50.950;6.920;2023-04-03T06:37:10;2.30;;;1.23;;
3601;SDS011;1815;50.950;6.920;2023-04-03T06:39:40;5.82;;;1.45;;
3601;SDS011;1815;50.950;6.920;2023-04-03T06:42:06;2.78;;;1.30;;
3601;SDS011;1815;50.950;6.920;2023-04-03T06:44:37;4.15;;;1.20;;
3601;SDS011;1815;50.950;6.920;2023-04-03T06:47:03;2.80;;;1.23;;
3601;SDS011;1815;50.950;6.920;2023-04-03T06:49:29;3.05;;;1.20;;
3601;SDS011;1815;50.950;6.920;2023-04-03T06:51:55;3.60;;;1.10;;
3601;SDS011;1815;50.950;6.920;2023-04-03T06:54:21;2.97;;;1.33;;
3601;SDS011;1815;50.950;6.920;2023-04-03T06:56:47;2.80;;;1.30;;
3601;SDS011;1815;50.950;6.920;2023-04-03T06:59:13;3.13;;;1.40;;
3601;SDS011;1815;50.950;6.920;2023-04-03T07:01:40;3.10;;;1.00;;
3601;SDS011;1815;50.950;6.920;2023-04-03T07:04:07;2.90;;;1.33;;
3601;SDS011;1815;50.950;6.920;2023-04-03T07:06:33;2.15;;;1.00;;
3601;SDS011;1815;50.950;6.920;2023-04-03T07:09:00;4.97;;;1.67;;
3601;SDS011;1815;50.950;6.920;2023-04-03T07:11:26;3.47;;;1.57;;
3601;SDS011;1815;50.950;6.920;2023-04-03T07:13:53;3.50;;;1.03;;
3601;SDS011;1815;50.950;6.920;2023-04-03T07:16:19;3.40;;;1.20;;
3601;SDS011;1815;50.950;6.920;2023-04-03T07:18:46;4.73;;;1.20;;
3601;SDS011;1815;50.950;6.920;2023-04-03T07:21:12;2.83;;;1.10;;
3601;SDS011;1815;50.950;6.920;2023-04-03T07:23:38;2.77;;;1.00;;
3601;SDS011;1815;50.950;6.920;2023-04-03T07:26:04;1.90;;;0.90;;
3601;SDS011;1815;50.950;6.920;2023-04-03T07:28:30;3.80;;;1.10;;
3601;SDS011;1815;50.950;6.920;2023-04-03T07:31:01;1.90;;;0.90;;
3601;SDS011;1815;50.950;6.920;2023-04-03T07:33:33;3.30;;;1.73;;
3601;SDS011;1815;50.950;6.920;2023-04-03T07:36:00;3.70;;;1.00;;
3601;SDS011;1815;50.950;6.920;2023-04-03T07:38:27;3.33;;;1.10;;
3601;SDS011;1815;50.950;6.920;2023-04-03T07:40:52;2.73;;;0.80;;
3601;SDS011;1815;50.950;6.920;2023-04-03T07:43:19;6.03;;;0.90;;
3601;SDS011;1815;50.950;6.920;2023-04-03T07:45:46;2.70;;;0.90;;
3601;SDS011;1815;50.950;6.920;2023-04-03T07:48:16;4.47;;;1.00;;
3601;SDS011;1815;50.950;6.920;2023-04-03T07:50:46;4.03;;;0.93;;
3601;SDS011;1815;50.950;6.920;2023-04-03T07:53:11;2.47;;;0.87;;
3601;SDS011;1815;50.950;6.920;2023-04-03T07:55:37;4.13;;;0.90;;
3601;SDS011;1815;50.950;6.920;2023-04-03T07:58:11;4.23;;;0.80;;
3601;SDS011;1815;50.950;6.920;2023-04-03T08:00:39;2.57;;;0.83;;
3601;SDS011;1815;50.950;6.920;2023-04-03T08:03:06;4.03;;;1.00;;
3601;SDS011;1815;50.950;6.920;2023-04-03T08:05:40;2.57;;;0.90;;
3601;SDS011;1815;50.950;6.920;2023-04-03T08:08:07;2.97;;;0.93;;
3601;SDS011;1815;50.950;6.920;2023-04-03T08:10:34;3.70;;;0.83;;
3601;SDS011;1815;50.950;6.920;2023-04-03T08:13:00;2.20;;;0.80;;
3601;SDS011;1815;50.950;6.920;2023-04-03T08:15:26;1.83;;;0.70;;
3601;SDS011;1815;50.950;6.920;2023-04-03T08:17:53;3.03;;;0.80;;
3601;SDS011;1815;50.950;6.920;2023-04-03T08:20:20;2.40;;;0.80;;
3601;SDS011;1815;50.950;6.920;2023-04-03T08:22:46;2.37;;;0.70;;
3601;SDS011;1815;50.950;6.920;2023-04-03T08:25:12;2.97;;;0.80;;
3601;SDS011;1815;50.950;6.920;2023-04-03T08:27:38;2.47;;;0.70;;
3601;SDS011;1815;50.950;6.920;2023-04-03T08:30:04;1.57;;;0.83;;
3601;SDS011;1815;50.950;6.920;2023-04-03T08:32:32;4.40;;;1.00;;
3601;SDS011;1815;50.950;6.920;2023-04-03T08:34:59;5.10;;;1.23;;
3601;SDS011;1815;50.950;6.920;2023-04-03T08:37:35;2.17;;;0.80;;
3601;SDS011;1815;50.950;6.920;2023-04-03T08:40:03;3.63;;;1.00;;
3601;SDS011;1815;50.950;6.920;2023-04-03T08:48:05;3.00;;;0.80;;
3601;SDS011;1815;50.950;6.920;2023-04-03T08:50:53;1.80;;;0.70;;
3601;SDS011;1815;50.950;6.920;2023-04-03T08:53:25;1.90;;;0.70;;
3601;SDS011;1815;50.950;6.920;2023-04-03T08:55:53;1.80;;;0.80;;
3601;SDS011;1815;50.950;6.920;2023-04-03T09:03:28;3.10;;;1.50;;
3601;SDS011;1815;50.950;6.920;2023-04-03T09:06:13;2.97;;;0.93;;
3601;SDS011;1815;50.950;6.920;2023-04-03T09:14:29;2.20;;;0.80;;
3601;SDS011;1815;50.950;6.920;2023-04-03T09:17:03;2.77;;;0.90;;
3601;SDS011;1815;50.950;6.920;2023-04-03T09:22:31;2.37;;;0.60;;
3601;SDS011;1815;50.950;6.920;2023-04-03T09:25:00;1.60;;;0.70;;
3601;SDS011;1815;50.950;6.920;2023-04-03T09:27:34;1.80;;;0.70;;
3601;SDS011;1815;50.950;6.920;2023-04-03T09:29:59;1.40;;;0.60;;
3601;SDS011;1815;50.950;6.920;2023-04-03T09:32:32;1.60;;;0.57;;
3601;SDS011;1815;50.950;6.920;2023-04-03T09:35:20;1.83;;;0.63;;
3601;SDS011;1815;50.950;6.920;2023-04-03T09:37:58;1.73;;;0.50;;
3601;SDS011;1815;50.950;6.920;2023-04-03T09:40:45;2.37;;;0.80;;
3601;SDS011;1815;50.950;6.920;2023-04-03T09:43:30;2.17;;;0.87;;
3601;SDS011;1815;50.950;6.920;2023-04-03T09:46:24;1.77;;;0.50;;
3601;SDS011;1815;50.950;6.920;2023-04-03T09:49:00;2.50;;;0.70;;
3601;SDS011;1815;50.950;6.920;2023-04-03T09:51:28;2.47;;;0.70;;
3601;SDS011;1815;50.950;6.920;2023-04-03T09:53:55;2.07;;;0.80;;
3601;SDS011;1815;50.950;6.920;2023-04-03T09:56:23;2.70;;;0.67;;
3601;SDS011;1815;50.950;6.920;2023-04-03T09:59:13;1.83;;;0.70;;
3601;SDS011;1815;50.950;6.920;2023-04-03T10:01:41;5.30;;;0.90;;
3601;SDS011;1815;50.950;6.920;2023-04-03T10:04:15;2.37;;;0.70;;
3601;SDS011;1815;50.950;6.920;2023-04-03T10:06:44;4.53;;;0.80;;
3601;SDS011;1815;50.950;6.920;2023-04-03T10:09:17;4.97;;;0.70;;
3601;SDS011;1815;50.950;6.920;2023-04-03T10:12:07;3.70;;;0.90;;
3601;SDS011;1815;50.950;6.920;2023-04-03T10:14:39;1.90;;;1.07;;
3601;SDS011;1815;50.950;6.920;2023-04-03T10:20:00;2.30;;;0.60;;
3601;SDS011;1815;50.950;6.920;2023-04-03T10:25:41;1.50;;;0.60;;
3601;SDS011;1815;50.950;6.920;2023-04-03T10:28:20;2.20;;;0.70;;
3601;SDS011;1815;50.950;6.920;2023-04-03T10:31:21;2.30;;;0.83;;
3601;SDS011;1815;50.950;6.920;2023-04-03T10:34:12;2.10;;;0.60;;
3601;SDS011;1815;50.950;6.920;2023-04-03T10:37:06;1.93;;;0.70;;
3601;SDS011;1815;50.950;6.920;2023-04-03T10:46:18;2.10;;;0.60;;
3601;SDS011;1815;50.950;6.920;2023-04-03T10:52:09;1.33;;;0.60;;
3601;SDS011;1815;50.950;6.920;2023-04-03T10:54:53;2.73;;;0.63;;
3601;SDS011;1815;50.950;6.920;2023-04-03T10:57:30;1.77;;;0.60;;
3601;SDS011;1815;50.950;6.920;2023-04-03T10:59:57;1.50;;;0.60;;
3601;SDS011;1815;50.950;6.920;2023-04-03T11:02:34;1.40;;;0.50;;
3601;SDS011;1815;50.950;6.920;2023-04-03T11:05:34;1.30;;;0.60;;
3601;SDS011;1815;50.950;6.920;2023-04-03T11:08:10;1.80;;;0.60;;
3601;SDS011;1815;50.950;6.920;2023-04-03T11:10:50;1.90;;;0.60;;
3601;SDS011;1815;50.950;6.920;2023-04-03T11:13:27;1.63;;;0.60;;
3601;SDS011;1815;50.950;6.920;2023-04-03T11:16:01;3.60;;;0.60;;
3601;SDS011;1815;50.950;6.920;2023-04-03T11:18:32;1.70;;;0.63;;
3601;SDS011;1815;50.950;6.920;2023-04-03T11:21:14;2.23;;;0.70;;
3601;SDS011;1815;50.950;6.920;2023-04-03T11:23:44;1.87;;;0.60;;
3601;SDS011;1815;50.950;6.920;2023-04-03T11:26:12;1.90;;;0.70;;
3601;SDS011;1815;50.950;6.920;2023-04-03T11:28:41;2.20;;;0.70;;
3601;SDS011;1815;50.950;6.920;2023-04-03T11:31:10;1.87;;;0.70;;
3601;SDS011;1815;50.950;6.920;2023-04-03T11:33:47;3.60;;;0.67;;
3601;SDS011;1815;50.950;6.920;2023-04-03T11:36:48;2.10;;;0.60;;
3601;SDS011;1815;50.950;6.920;2023-04-03T11:39:20;3.30;;;1.10;;
3601;SDS011;1815;50.950;6.920;2023-04-03T11:41:50;2.40;;;0.70;;
3601;SDS011;1815;50.950;6.920;2023-04-03T11:44:30;3.10;;;0.70;;
3601;SDS011;1815;50.950;6.920;2023-04-03T11:47:02;3.30;;;0.70;;
3601;SDS011;1815;50.950;6.920;2023-04-03T11:52:53;2.17;;;0.67;;
3601;SDS011;1815;50.950;6.920;2023-04-03T12:05:52;1.63;;;0.50;;
3601;SDS011;1815;50.950;6.920;2023-04-03T12:13:41;5.33;;;0.90;;
3601;SDS011;1815;50.950;6.920;2023-04-03T12:16:27;4.30;;;0.50;;
3601;SDS011;1815;50.950;6.920;2023-04-03T12:19:03;3.20;;;0.73;;
3601;SDS011;1815;50.950;6.920;2023-04-03T12:26:30;1.57;;;0.60;;
3601;SDS011;1815;50.950;6.920;2023-04-03T12:29:12;1.67;;;0.50;;
3601;SDS011;1815;50.950;6.920;2023-04-03T12:45:58;1.60;;;0.50;;
3601;SDS011;1815;50.950;6.920;2023-04-03T12:48:38;1.80;;;0.60;;
3601;SDS011;1815;50.950;6.920;2023-04-03T12:51:21;3.20;;;0.60;;
3601;SDS011;1815;50.950;6.920;2023-04-03T12:53:56;3.37;;;0.70;;
3601;SDS011;1815;50.950;6.920;2023-04-03T12:56:31;2.40;;;0.60;;
3601;SDS011;1815;50.950;6.920;2023-04-03T13:01:53;1.63;;;0.53;;
3601;SDS011;1815;50.950;6.920;2023-04-03T13:04:26;2.37;;;0.60;;
3601;SDS011;1815;50.950;6.920;2023-04-03T13:06:54;1.47;;;0.60;;
3601;SDS011;1815;50.950;6.920;2023-04-03T13:11:49;1.60;;;0.60;;
3601;SDS011;1815;50.950;6.920;2023-04-03T13:14:22;2.00;;;0.60;;
3601;SDS011;1815;50.950;6.920;2023-04-03T13:19:19;1.63;;;0.50;;
3601;SDS011;1815;50.950;6.920;2023-04-03T13:21:47;1.70;;;0.50;;
3601;SDS011;1815;50.950;6.920;2023-04-03T13:24:14;2.10;;;0.70;;
3601;SDS011;1815;50.950;6.920;2023-04-03T13:26:40;1.60;;;0.70;;
3601;SDS011;1815;50.950;6.920;2023-04-03T13:29:28;1.90;;;0.60;;
3601;SDS011;1815;50.950;6.920;2023-04-03T13:31:58;2.03;;;0.70;;
3601;SDS011;1815;50.950;6.920;2023-04-03T13:34:27;4.55;;;0.80;;
3601;SDS011;1815;50.950;6.920;2023-04-03T13:36:58;2.43;;;0.70;;
3601;SDS011;1815;50.950;6.920;2023-04-03T13:39:33;2.15;;;0.70;;
3601;SDS011;1815;50.950;6.920;2023-04-03T13:42:02;1.95;;;0.70;;
3601;SDS011;1815;50.950;6.920;2023-04-03T13:44:46;2.88;;;0.70;;
3601;SDS011;1815;50.950;6.920;2023-04-03T13:47:20;2.33;;;0.70;;
3601;SDS011;1815;50.950;6.920;2023-04-03T13:52:48;1.85;;;0.60;;
3601;SDS011;1815;50.950;6.920;2023-04-03T14:00:45;2.33;;;0.65;;
3601;SDS011;1815;50.950;6.920;2023-04-03T14:03:19;2.10;;;0.70;;
3601;SDS011;1815;50.950;6.920;2023-04-03T14:05:48;1.80;;;0.60;;
3601;SDS011;1815;50.950;6.920;2023-04-03T14:08:14;3.17;;;0.70;;
3601;SDS011;1815;50.950;6.920;2023-04-03T14:10:41;1.55;;;0.63;;
3601;SDS011;1815;50.950;6.920;2023-04-03T14:13:09;1.90;;;0.70;;
3601;SDS011;1815;50.950;6.920;2023-04-03T14:15:39;2.50;;;0.60;;
3601;SDS011;1815;50.950;6.920;2023-04-03T14:18:05;2.20;;;0.80;;
3601;SDS011;1815;50.950;6.920;2023-04-03T14:20:31;2.47;;;0.60;;
3601;SDS011;1815;50.950;6.920;2023-04-03T14:22:57;2.00;;;0.63;;
3601;SDS011;1815;50.950;6.920;2023-04-03T14:25:23;1.60;;;0.73;;
3601;SDS011;1815;50.950;6.920;2023-04-03T14:27:51;1.65;;;0.65;;
3601;SDS011;1815;50.950;6.920;2023-04-03T14:30:23;2.40;;;0.70;;
3601;SDS011;1815;50.950;6.920;2023-04-03T14:32:52;1.83;;;0.80;;
3601;SDS011;1815;50.950;6.920;2023-04-03T14:35:18;2.07;;;0.83;;
3601;SDS011;1815;50.950;6.920;2023-04-03T14:37:45;2.20;;;0.88;;
3601;SDS011;1815;50.950;6.920;2023-04-03T14:40:16;3.35;;;0.80;;
3601;SDS011;1815;50.950;6.920;2023-04-03T14:42:44;2.42;;;0.70;;
3601;SDS011;1815;50.950;6.920;2023-04-03T14:45:12;1.55;;;0.68;;
3601;SDS011;1815;50.950;6.920;2023-04-03T14:47:48;2.47;;;0.70;;
3601;SDS011;1815;50.950;6.920;2023-04-03T14:50:21;1.88;;;0.70;;
3601;SDS011;1815;50.950;6.920;2023-04-03T14:52:49;3.40;;;1.00;;
3601;SDS011;1815;50.950;6.920;2023-04-03T14:55:17;1.80;;;0.80;;
3601;SDS011;1815;50.950;6.920;2023-04-03T14:57:44;1.40;;;0.70;;
3601;SDS011;1815;50.950;6.920;2023-04-03T15:00:14;1.50;;;0.73;;
3601;SDS011;1815;50.950;6.920;2023-04-03T15:02:45;2.10;;;0.55;;
3601;SDS011;1815;50.950;6.920;2023-04-03T15:05:12;1.67;;;0.70;;
3601;SDS011;1815;50.950;6.920;2023-04-03T15:07:43;1.60;;;0.60;;
3601;SDS011;1815;50.950;6.920;2023-04-03T15:10:19;2.08;;;0.80;;
3601;SDS011;1815;50.950;6.920;2023-04-03T15:12:47;1.50;;;0.68;;
3601;SDS011;1815;50.950;6.920;2023-04-03T15:15:14;1.50;;;0.60;;
3601;SDS011;1815;50.950;6.920;2023-04-03T15:17:41;2.67;;;0.55;;
3601;SDS011;1815;50.950;6.920;2023-04-03T15:20:12;4.32;;;0.80;;
3601;SDS011;1815;50.950;6.920;2023-04-03T15:22:38;2.15;;;0.60;;
3601;SDS011;1815;50.950;6.920;2023-04-03T15:25:04;1.50;;;0.60;;
3601;SDS011;1815;50.950;6.920;2023-04-03T15:27:30;1.48;;;0.70;;
3601;SDS011;1815;50.950;6.920;2023-04-03T15:29:56;1.80;;;0.70;;
3601;SDS011;1815;50.950;6.920;2023-04-03T15:32:21;2.40;;;0.70;;
3601;SDS011;1815;50.950;6.920;2023-04-03T15:34:47;2.53;;;0.70;;
3601;SDS011;1815;50.950;6.920;2023-04-03T15:37:13;1.70;;;0.70;;
3601;SDS011;1815;50.950;6.920;2023-04-03T15:39:38;2.47;;;1.00;;
3601;SDS011;1815;50.950;6.920;2023-04-03T15:42:04;2.70;;;0.70;;
3601;SDS011;1815;50.950;6.920;2023-04-03T15:44:33;3.25;;;0.70;;
3601;SDS011;1815;50.950;6.920;2023-04-03T15:46:59;1.60;;;0.60;;
3601;SDS011;1815;50.950;6.920;2023-04-03T15:49:26;1.30;;;0.60;;
3601;SDS011;1815;50.950;6.920;2023-04-03T15:51:52;2.65;;;0.70;;
3601;SDS011;1815;50.950;6.920;2023-04-03T15:54:18;2.97;;;0.77;;
3601;SDS011;1815;50.950;6.920;2023-04-03T15:56:44;1.90;;;0.67;;
3601;SDS011;1815;50.950;6.920;2023-04-03T15:59:10;1.30;;;0.60;;
3601;SDS011;1815;50.950;6.920;2023-04-03T16:01:36;1.40;;;0.70;;
3601;SDS011;1815;50.950;6.920;2023-04-03T16:04:03;1.85;;;0.70;;
3601;SDS011;1815;50.950;6.920;2023-04-03T16:06:29;1.50;;;0.70;;
3601;SDS011;1815;50.950;6.920;2023-04-03T16:08:55;2.45;;;0.90;;
3601;SDS011;1815;50.950;6.920;2023-04-03T16:11:23;2.30;;;1.08;;
3601;SDS011;1815;50.950;6.920;2023-04-03T16:13:49;2.13;;;0.70;;
3601;SDS011;1815;50.950;6.920;2023-04-03T16:16:15;2.08;;;0.60;;
3601;SDS011;1815;50.950;6.920;2023-04-03T16:18:41;2.27;;;0.97;;
3601;SDS011;1815;50.950;6.920;2023-04-03T16:21:07;2.57;;;0.70;;
3601;SDS011;1815;50.950;6.920;2023-04-03T16:23:33;2.15;;;0.68;;
3601;SDS011;1815;50.950;6.920;2023-04-03T16:25:59;3.22;;;0.95;;
3601;SDS011;1815;50.950;6.920;2023-04-03T16:28:26;2.25;;;0.80;;
3601;SDS011;1815;50.950;6.920;2023-04-03T16:30:52;1.60;;;0.70;;
3601;SDS011;1815;50.950;6.920;2023-04-03T16:33:17;1.70;;;0.80;;
3601;SDS011;1815;50.950;6.920;2023-04-03T16:35:46;1.80;;;0.70;;
3601;SDS011;1815;50.950;6.920;2023-04-03T16:38:13;1.70;;;0.80;;
3601;SDS011;1815;50.950;6.920;2023-04-03T16:40:40;1.92;;;0.60;;
3601;SDS011;1815;50.950;6.920;2023-04-03T16:43:06;3.97;;;0.70;;
3601;SDS011;1815;50.950;6.920;2023-04-03T16:45:32;3.30;;;0.70;;
3601;SDS011;1815;50.950;6.920;2023-04-03T16:47:58;3.60;;;0.80;;
3601;SDS011;1815;50.950;6.920;2023-04-03T16:50:24;2.43;;;0.63;;
3601;SDS011;1815;50.950;6.920;2023-04-03T16:52:49;4.47;;;0.87;;
3601;SDS011;1815;50.950;6.920;2023-04-03T16:55:15;1.70;;;0.70;;
3601;SDS011;1815;50.950;6.920;2023-04-03T16:57:41;4.70;;;0.80;;
3601;SDS011;1815;50.950;6.920;2023-04-03T17:00:07;1.70;;;0.70;;
3601;SDS011;1815;50.950;6.920;2023-04-03T17:02:33;3.85;;;0.70;;